sensor_id;sensor_type;location;lat;lon;timestamp;P1;P2;P0
78512;PMS5003;67809;55.034;73.462;2024-03-02T00:00:10;6.00;5.00;3.00
78512;PMS5003;67809;55.034;73.462;2024-03-02T00:02:41;4.00;3.00;2.00
78512;PMS5003;67809;55.034;73.462;2024-03-02T00:05:07;3.75;3.25;1.25
78512;PMS5003;67809;55.034;73.462;2024-03-02T00:07:33;3.75;3.25;2.00
78512;PMS5003;67809;55.034;73.462;2024-03-02T00:10:00;6.00;4.00;3.00
78512;PMS5003;67809;55.034;73.462;2024-03-02T00:12:26;4.00;4.00;2.25
78512;PMS5003;67809;55.034;73.462;2024-03-02T00:14:52;3.00;3.00;2.00
78512;PMS5003;67809;55.034;73.462;2024-03-02T00:17:21;4.00;3.00;2.00
78512;PMS5003;67809;55.034;73.462;2024-03-02T00:19:50;4.50;4.00;2.25
78512;PMS5003;67809;55.034;73.462;2024-03-02T00:22:16;4.00;3.50;2.00
78512;PMS5003;67809;55.034;73.462;2024-03-02T00:24:43;4.00;4.00;2.00
78512;PMS5003;67809;55.034;73.462;2024-03-02T00:27:09;4.00;3.00;1.75
78512;PMS5003;67809;55.034;73.462;2024-03-02T00:29:39;6.00;5.00;3.00
78512;PMS5003;67809;55.034;73.462;2024-03-02T00:32:12;4.00;3.00;2.00
78512;PMS5003;67809;55.034;73.462;2024-03-02T00:34:39;4.00;4.00;3.00
78512;PMS5003;67809;55.034;73.462;2024-03-02T00:37:05;3.50;3.00;2.00
78512;PMS5003;67809;55.034;73.462;2024-03-02T00:39:32;5.50;5.00;4.00
78512;PMS5003;67809;55.034;73.462;2024-03-02T00:41:58;6.25;5.00;3.00
78512;PMS5003;67809;55.034;73.462;2024-03-02T00:44:25;5.00;4.33;3.00
78512;PMS5003;67809;55.034;73.462;2024-03-02T00:46:52;4.00;3.00;2.00
78512;PMS5003;67809;55.034;73.462;2024-03-02T00:49:22;8.25;6.00;3.00
78512;PMS5003;67809;55.034;73.462;2024-03-02T00:51:49;8.00;5.50;4.00
78512;PMS5003;67809;55.034;73.462;2024-03-02T00:54:25;5.00;4.00;2.00
78512;PMS5003;67809;55.034;73.462;2024-03-02T00:56:52;7.75;6.00;3.00
78512;PMS5003;67809;55.034;73.462;2024-03-02T00:59:21;7.00;6.00;3.00
78512;PMS5003;67809;55.034;73.462;2024-03-02T01:01:47;7.00;5.00;3.00
78512;PMS5003;67809;55.034;73.462;2024-03-02T01:04:14;6.00;5.00;3.00
78512;PMS5003;67809;55.034;73.462;2024-03-02T01:06:41;5.25;5.00;3.00
78512;PMS5003;67809;55.034;73.462;2024-03-02T01:09:07;8.00;5.50;3.00
78512;PMS5003;67809;55.034;73.462;2024-03-02T01:11:33;5.00;4.00;2.00
78512;PMS5003;67809;55.034;73.462;2024-03-02T01:13:59;5.00;4.00;2.00
78512;PMS5003;67809;55.034;73.462;2024-03-02T01:16:26;5.00;4.00;3.00
78512;PMS5003;67809;55.034;73.462;2024-03-02T01:18:52;6.00;4.25;2.00
78512;PMS5003;67809;55.034;73.462;2024-03-02T01:21:18;4.25;4.00;2.00
78512;PMS5003;67809;55.034;73.462;2024-03-02T01:23:45;7.00;6.00;4.00
78512;PMS5003;67809;55.034;73.462;2024-03-02T01:26:11;5.25;5.00;3.00
78512;PMS5003;67809;55.034;73.462;2024-03-02T01:28:37;5.00;4.00;2.25
78512;PMS5003;67809;55.034;73.462;2024-03-02T01:31:03;5.00;4.25;3.00
78512;PMS5003;67809;55.034;73.462;2024-03-02T01:33:30;3.00;2.00;2.00
78512;PMS5003;67809;55.034;73.462;2024-03-02T01:35:56;4.00;3.75;2.00
78512;PMS5003;67809;55.034;73.462;2024-03-02T01:38:22;5.00;4.00;2.00
78512;PMS5003;67809;55.034;73.462;2024-03-02T01:40:48;5.00;4.00;2.00
78512;PMS5003;67809;55.034;73.462;2024-03-02T01:43:15;4.00;4.00;2.50
78512;PMS5003;67809;55.034;73.462;2024-03-02T01:45:42;4.00;3.33;3.00
78512;PMS5003;67809;55.034;73.462;2024-03-02T01:48:08;4.00;4.00;3.00
78512;PMS5003;67809;55.034;73.462;2024-03-02T01:50:34;4.00;3.00;2.00
78512;PMS5003;67809;55.034;73.462;2024-03-02T01:53:01;3.75;3.00;2.00
78512;PMS5003;67809;55.034;73.462;2024-03-02T01:55:28;5.00;3.00;2.00
78512;PMS5003;67809;55.034;73.462;2024-03-02T01:57:58;3.00;3.00;2.00
78512;PMS5003;67809;55.034;73.462;2024-03-02T02:00:25;3.25;3.00;2.00
78512;PMS5003;67809;55.034;73.462;2024-03-02T02:02:52;5.00;4.00;2.00
78512;PMS5003;67809;55.034;73.462;2024-03-02T02:05:18;4.00;2.67;1.67
78512;PMS5003;67809;55.034;73.462;2024-03-02T02:07:44;3.00;3.00;1.75
78512;PMS5003;67809;55.034;73.462;2024-03-02T02:10:11;3.00;2.00;1.00
78512;PMS5003;67809;55.034;73.462;2024-03-02T02:12:37;4.75;3.00;2.00
78512;PMS5003;67809;55.034;73.462;2024-03-02T02:15:04;3.67;3.00;2.00
78512;PMS5003;67809;55.034;73.462;2024-03-02T02:17:47;4.00;3.00;2.00
78512;PMS5003;67809;55.034;73.462;2024-03-02T02:20:13;5.00;4.00;2.00
78512;PMS5003;67809;55.034;73.462;2024-03-02T02:22:39;5.00;3.00;2.00
78512;PMS5003;67809;55.034;73.462;2024-03-02T02:25:06;4.00;3.00;3.00
78512;PMS5003;67809;55.034;73.462;2024-03-02T02:27:32;5.00;5.00;3.00
78512;PMS5003;67809;55.034;73.462;2024-03-02T02:29:58;3.00;2.50;2.00
78512;PMS5003;67809;55.034;73.462;2024-03-02T02:32:27;4.00;3.00;2.00
78512;PMS5003;67809;55.034;73.462;2024-03-02T02:34:54;3.00;3.00;1.00
78512;PMS5003;67809;55.034;73.462;2024-03-02T02:37:20;4.00;3.25;2.00
78512;PMS5003;67809;55.034;73.462;2024-03-02T02:39:47;5.00;4.00;3.00
78512;PMS5003;67809;55.034;73.462;2024-03-02T02:42:13;3.00;3.00;2.00
78512;PMS5003;67809;55.034;73.462;2024-03-02T02:44:39;3.33;3.00;2.00
78512;PMS5003;67809;55.034;73.462;2024-03-02T02:47:05;3.25;2.50;1.50
78512;PMS5003;67809;55.034;73.462;2024-03-02T02:49:32;3.75;3.00;2.00
78512;PMS5003;67809;55.034;73.462;2024-03-02T02:51:58;3.00;2.00;1.00
78512;PMS5003;67809;55.034;73.462;2024-03-02T02:54:24;4.00;3.00;2.00
78512;PMS5003;67809;55.034;73.462;2024-03-02T02:56:50;4.00;3.00;2.00
78512;PMS5003;67809;55.034;73.462;2024-03-02T02:59:17;3.00;3.00;2.00
78512;PMS5003;67809;55.034;73.462;2024-03-02T03:01:43;3.50;3.00;2.00
78512;PMS5003;67809;55.034;73.462;2024-03-02T03:04:10;4.25;4.00;2.00
78512;PMS5003;67809;55.034;73.462;2024-03-02T03:06:36;3.25;3.00;2.00
78512;PMS5003;67809;55.034;73.462;2024-03-02T03:09:02;3.50;3.00;1.25
78512;PMS5003;67809;55.034;73.462;2024-03-02T03:11:28;5.00;3.00;2.00
78512;PMS5003;67809;55.034;73.462;2024-03-02T03:13:55;5.00;4.00;2.00
78512;PMS5003;67809;55.034;73.462;2024-03-02T03:16:21;3.00;3.00;1.00
78512;PMS5003;67809;55.034;73.462;2024-03-02T03:18:47;3.00;3.00;2.00
78512;PMS5003;67809;55.034;73.462;2024-03-02T03:21:16;5.00;4.00;2.00
78512;PMS5003;67809;55.034;73.462;2024-03-02T03:23:42;2.00;1.75;1.00
78512;PMS5003;67809;55.034;73.462;2024-03-02T03:26:08;7.33;6.33;4.33
78512;PMS5003;67809;55.034;73.462;2024-03-02T03:28:34;3.75;3.00;2.00
78512;PMS5003;67809;55.034;73.462;2024-03-02T03:31:00;3.00;2.50;1.00
78512;PMS5003;67809;55.034;73.462;2024-03-02T03:33:29;2.00;2.00;2.00
78512;PMS5003;67809;55.034;73.462;2024-03-02T03:35:55;4.00;3.67;1.00
78512;PMS5003;67809;55.034;73.462;2024-03-02T03:38:22;3.00;2.50;2.00
78512;PMS5003;67809;55.034;73.462;2024-03-02T03:40:48;3.00;3.00;2.00
78512;PMS5003;67809;55.034;73.462;2024-03-02T03:43:14;4.00;3.00;2.00
78512;PMS5003;67809;55.034;73.462;2024-03-02T03:45:40;4.00;3.00;2.00
78512;PMS5003;67809;55.034;73.462;2024-03-02T03:48:07;9.00;8.00;6.00
78512;PMS5003;67809;55.034;73.462;2024-03-02T03:50:33;2.00;2.00;1.00
78512;PMS5003;67809;55.034;73.462;2024-03-02T03:53:00;3.00;2.00;2.00
78512;PMS5003;67809;55.034;73.462;2024-03-02T03:55:26;2.75;2.00;1.00
78512;PMS5003;67809;55.034;73.462;2024-03-02T03:57:53;4.00;3.00;2.00
78512;PMS5003;67809;55.034;73.462;2024-03-02T04:00:19;5.00;4.00;2.00
78512;PMS5003;67809;55.034;73.462;2024-03-02T04:02:45;4.00;3.25;1.00
78512;PMS5003;67809;55.034;73.462;2024-03-02T04:05:12;3.00;3.00;2.00
78512;PMS5003;67809;55.034;73.462;2024-03-02T04:07:38;2.00;2.00;1.00
78512;PMS5003;67809;55.034;73.462;2024-03-02T04:10:06;2.00;2.00;2.00
78512;PMS5003;67809;55.034;73.462;2024-03-02T04:12:34;3.00;3.00;2.00
78512;PMS5003;67809;55.034;73.462;2024-03-02T04:15:01;3.00;3.00;1.00
78512;PMS5003;67809;55.034;73.462;2024-03-02T04:17:28;3.00;3.00;2.00
78512;PMS5003;67809;55.034;73.462;2024-03-02T04:19:54;3.00;2.00;1.00
78512;PMS5003;67809;55.034;73.462;2024-03-02T04:22:20;3.00;3.00;1.00
78512;PMS5003;67809;55.034;73.462;2024-03-02T04:24:46;2.00;2.00;1.00
78512;PMS5003;67809;55.034;73.462;2024-03-02T04:27:12;2.67;2.00;1.00
78512;PMS5003;67809;55.034;73.462;2024-03-02T04:29:38;3.00;2.75;1.50
78512;PMS5003;67809;55.034;73.462;2024-03-02T04:32:05;4.00;3.00;2.00
78512;PMS5003;67809;55.034;73.462;2024-03-02T04:34:31;3.00;2.25;1.00
78512;PMS5003;67809;55.034;73.462;2024-03-02T04:36:57;3.00;3.00;2.00
78512;PMS5003;67809;55.034;73.462;2024-03-02T04:39:23;3.00;3.00;2.00
78512;PMS5003;67809;55.034;73.462;2024-03-02T04:41:50;14.75;13.75;9.75
78512;PMS5003;67809;55.034;73.462;2024-03-02T04:44:17;6.00;5.00;4.00
78512;PMS5003;67809;55.034;73.462;2024-03-02T04:46:43;3.00;3.00;2.00
78512;PMS5003;67809;55.034;73.462;2024-03-02T04:49:09;3.00;3.00;2.00
78512;PMS5003;67809;55.034;73.462;2024-03-02T04:51:35;3.00;3.00;2.00
78512;PMS5003;67809;55.034;73.462;2024-03-02T04:54:01;3.00;2.00;1.00
78512;PMS5003;67809;55.034;73.462;2024-03-02T04:56:28;3.00;2.00;1.25
78512;PMS5003;67809;55.034;73.462;2024-03-02T04:58:57;3.00;2.00;1.00
78512;PMS5003;67809;55.034;73.462;2024-03-02T05:01:23;3.00;3.00;2.00
78512;PMS5003;67809;55.034;73.462;2024-03-02T05:03:49;3.00;3.00;2.00
78512;PMS5003;67809;55.034;73.462;2024-03-02T05:06:15;3.00;2.00;2.00
78512;PMS5003;67809;55.034;73.462;2024-03-02T05:08:41;4.00;3.00;1.75
78512;PMS5003;67809;55.034;73.462;2024-03-02T05:11:08;3.75;3.25;2.00
78512;PMS5003;67809;55.034;73.462;2024-03-02T05:14:09;2.00;2.00;1.00
78512;PMS5003;67809;55.034;73.462;2024-03-02T05:16:35;4.00;3.00;2.00
78512;PMS5003;67809;55.034;73.462;2024-03-02T05:19:06;3.00;3.00;1.00
78512;PMS5003;67809;55.034;73.462;2024-03-02T05:21:33;4.00;3.00;2.00
78512;PMS5003;67809;55.034;73.462;2024-03-02T05:23:59;4.75;4.00;2.00
78512;PMS5003;67809;55.034;73.462;2024-03-02T05:26:25;4.00;4.00;2.00
78512;PMS5003;67809;55.034;73.462;2024-03-02T05:28:52;3.00;2.75;2.00
78512;PMS5003;67809;55.034;73.462;2024-03-02T05:31:19;5.00;4.00;2.00
78512;PMS5003;67809;55.034;73.462;2024-03-02T05:33:45;3.00;3.00;2.00
78512;PMS5003;67809;55.034;73.462;2024-03-02T05:36:12;4.00;3.00;2.00
78512;PMS5003;67809;55.034;73.462;2024-03-02T05:38:38;3.00;3.00;2.00
78512;PMS5003;67809;55.034;73.462;2024-03-02T05:41:04;3.00;2.50;2.00
78512;PMS5003;67809;55.034;73.462;2024-03-02T05:43:31;4.00;3.00;1.00
78512;PMS5003;67809;55.034;73.462;2024-03-02T05:45:57;2.50;2.50;2.00
78512;PMS5003;67809;55.034;73.462;2024-03-02T05:48:24;4.00;4.00;2.00
78512;PMS5003;67809;55.034;73.462;2024-03-02T05:50:50;5.00;4.00;2.25
78512;PMS5003;67809;55.034;73.462;2024-03-02T05:53:18;5.00;4.00;3.00
78512;PMS5003;67809;55.034;73.462;2024-03-02T05:55:44;5.00;3.00;2.00
78512;PMS5003;67809;55.034;73.462;2024-03-02T05:58:11;5.25;4.75;3.00
78512;PMS5003;67809;55.034;73.462;2024-03-02T06:00:54;4.00;3.00;3.00
78512;PMS5003;67809;55.034;73.462;2024-03-02T06:03:21;5.00;4.00;2.00
78512;PMS5003;67809;55.034;73.462;2024-03-02T06:05:47;5.50;4.50;3.00
78512;PMS5003;67809;55.034;73.462;2024-03-02T06:08:15;4.00;4.00;2.00
78512;PMS5003;67809;55.034;73.462;2024-03-02T06:10:41;4.00;4.00;2.00
78512;PMS5003;67809;55.034;73.462;2024-03-02T06:13:07;3.25;3.00;2.00
78512;PMS5003;67809;55.034;73.462;2024-03-02T06:15:34;5.50;4.50;2.00
78512;PMS5003;67809;55.034;73.462;2024-03-02T06:18:02;5.00;4.00;2.67
78512;PMS5003;67809;55.034;73.462;2024-03-02T06:20:28;5.00;4.00;3.25
78512;PMS5003;67809;55.034;73.462;2024-03-02T06:22:57;6.00;6.00;3.00
78512;PMS5003;67809;55.034;73.462;2024-03-02T06:25:23;6.00;5.50;3.00
78512;PMS5003;67809;55.034;73.462;2024-03-02T06:27:49;7.00;6.00;4.00
78512;PMS5003;67809;55.034;73.462;2024-03-02T06:30:16;10.00;8.00;4.00
78512;PMS5003;67809;55.034;73.462;2024-03-02T06:32:42;8.25;7.00;4.75
78512;PMS5003;67809;55.034;73.462;2024-03-02T06:35:09;7.25;6.00;4.00
78512;PMS5003;67809;55.034;73.462;2024-03-02T06:37:36;7.00;7.00;5.00
78512;PMS5003;67809;55.034;73.462;2024-03-02T06:40:03;8.00;6.00;5.00
78512;PMS5003;67809;55.034;73.462;2024-03-02T06:42:29;9.25;8.00;4.25
78512;PMS5003;67809;55.034;73.462;2024-03-02T06:44:59;8.00;7.00;4.00
78512;PMS5003;67809;55.034;73.462;2024-03-02T06:47:25;15.00;13.00;10.00
78512;PMS5003;67809;55.034;73.462;2024-03-02T06:49:52;12.25;10.00;7.00
78512;PMS5003;67809;55.034;73.462;2024-03-02T06:52:19;13.25;10.00;6.00
78512;PMS5003;67809;55.034;73.462;2024-03-02T06:54:46;10.00;9.00;5.00
78512;PMS5003;67809;55.034;73.462;2024-03-02T06:57:13;9.33;9.00;6.33
78512;PMS5003;67809;55.034;73.462;2024-03-02T06:59:39;15.00;12.00;6.00
78512;PMS5003;67809;55.034;73.462;2024-03-02T07:02:05;13.00;10.00;7.00
78512;PMS5003;67809;55.034;73.462;2024-03-02T07:04:32;12.75;11.00;7.00
78512;PMS5003;67809;55.034;73.462;2024-03-02T07:06:58;12.00;10.00;6.00
78512;PMS5003;67809;55.034;73.462;2024-03-02T07:09:24;12.00;9.25;6.00
78512;PMS5003;67809;55.034;73.462;2024-03-02T07:11:51;13.00;11.00;6.00
78512;PMS5003;67809;55.034;73.462;2024-03-02T07:14:18;12.00;10.00;7.00
78512;PMS5003;67809;55.034;73.462;2024-03-02T07:16:44;18.00;13.00;8.00
78512;PMS5003;67809;55.034;73.462;2024-03-02T07:19:23;13.00;10.00;7.00
78512;PMS5003;67809;55.034;73.462;2024-03-02T07:21:49;13.00;10.00;7.00
78512;PMS5003;67809;55.034;73.462;2024-03-02T07:24:15;12.00;10.00;7.00
78512;PMS5003;67809;55.034;73.462;2024-03-02T07:26:42;12.25;11.00;6.00
78512;PMS5003;67809;55.034;73.462;2024-03-02T07:29:09;13.33;10.67;7.00
78512;PMS5003;67809;55.034;73.462;2024-03-02T07:31:35;11.75;9.25;6.00
78512;PMS5003;67809;55.034;73.462;2024-03-02T07:34:02;14.00;11.00;7.00
78512;PMS5003;67809;55.034;73.462;2024-03-02T07:36:29;11.00;8.25;5.75
78512;PMS5003;67809;55.034;73.462;2024-03-02T07:38:55;12.00;10.00;7.00
78512;PMS5003;67809;55.034;73.462;2024-03-02T07:41:21;14.00;12.00;8.00
78512;PMS5003;67809;55.034;73.462;2024-03-02T07:43:47;11.75;9.00;6.00
78512;PMS5003;67809;55.034;73.462;2024-03-02T07:46:14;14.00;11.75;7.00
78512;PMS5003;67809;55.034;73.462;2024-03-02T07:48:41;11.00;8.50;6.00
78512;PMS5003;67809;55.034;73.462;2024-03-02T07:51:08;12.00;10.00;7.00
78512;PMS5003;67809;55.034;73.462;2024-03-02T07:53:34;13.00;11.00;7.00
78512;PMS5003;67809;55.034;73.462;2024-03-02T07:56:00;11.75;10.00;6.00
78512;PMS5003;67809;55.034;73.462;2024-03-02T07:58:28;12.00;10.00;7.00
78512;PMS5003;67809;55.034;73.462;2024-03-02T08:00:56;11.00;10.00;6.00
78512;PMS5003;67809;55.034;73.462;2024-03-02T08:03:22;12.00;10.00;6.00
78512;PMS5003;67809;55.034;73.462;2024-03-02T08:05:48;13.00;11.00;7.00
78512;PMS5003;67809;55.034;73.462;2024-03-02T08:08:14;10.00;9.00;6.00
78512;PMS5003;67809;55.034;73.462;2024-03-02T08:10:41;12.75;9.75;6.00
78512;PMS5003;67809;55.034;73.462;2024-03-02T08:13:07;12.00;9.75;7.00
78512;PMS5003;67809;55.034;73.462;2024-03-02T08:15:33;9.00;8.00;6.00
78512;PMS5003;67809;55.034;73.462;2024-03-02T08:17:59;11.00;9.00;6.00
78512;PMS5003;67809;55.034;73.462;2024-03-02T08:20:26;10.75;8.75;5.25
78512;PMS5003;67809;55.034;73.462;2024-03-02T08:22:52;12.00;9.00;6.00
78512;PMS5003;67809;55.034;73.462;2024-03-02T08:25:20;15.00;11.00;7.00
78512;PMS5003;67809;55.034;73.462;2024-03-02T08:27:47;12.00;9.00;6.00
78512;PMS5003;67809;55.034;73.462;2024-03-02T08:30:14;9.50;8.00;5.00
78512;PMS5003;67809;55.034;73.462;2024-03-02T08:32:40;9.00;8.00;5.00
78512;PMS5003;67809;55.034;73.462;2024-03-02T08:35:06;11.00;8.50;5.25
78512;PMS5003;67809;55.034;73.462;2024-03-02T08:37:33;8.00;8.00;6.00
78512;PMS5003;67809;55.034;73.462;2024-03-02T08:39:59;9.00;8.00;5.00
78512;PMS5003;67809;55.034;73.462;2024-03-02T08:42:25;9.00;8.00;5.00
78512;PMS5003;67809;55.034;73.462;2024-03-02T08:44:51;8.00;7.00;5.00
78512;PMS5003;67809;55.034;73.462;2024-03-02T08:47:18;9.00;8.00;5.00
78512;PMS5003;67809;55.034;73.462;2024-03-02T08:49:46;7.00;6.00;4.00
78512;PMS5003;67809;55.034;73.462;2024-03-02T08:52:12;8.25;8.00;6.00
78512;PMS5003;67809;55.034;73.462;2024-03-02T08:54:38;7.00;6.00;4.00
78512;PMS5003;67809;55.034;73.462;2024-03-02T08:57:05;8.00;7.00;5.00
78512;PMS5003;67809;55.034;73.462;2024-03-02T08:59:31;6.00;6.00;4.00
78512;PMS5003;67809;55.034;73.462;2024-03-02T09:01:57;8.00;7.00;5.00
78512;PMS5003;67809;55.034;73.462;2024-03-02T09:04:23;8.00;7.00;5.00
78512;PMS5003;67809;55.034;73.462;2024-03-02T09:06:49;7.00;6.00;4.00
78512;PMS5003;67809;55.034;73.462;2024-03-02T09:09:16;8.00;7.00;4.00
78512;PMS5003;67809;55.034;73.462;2024-03-02T09:11:42;6.00;6.00;5.00
78512;PMS5003;67809;55.034;73.462;2024-03-02T09:14:08;7.25;6.75;4.75
78512;PMS5003;67809;55.034;73.462;2024-03-02T09:16:50;8.00;7.00;5.00
78512;PMS5003;67809;55.034;73.462;2024-03-02T09:19:16;7.00;6.00;5.00
78512;PMS5003;67809;55.034;73.462;2024-03-02T09:21:42;9.00;7.00;4.00
78512;PMS5003;67809;55.034;73.462;2024-03-02T09:24:10;7.75;7.00;5.00
78512;PMS5003;67809;55.034;73.462;2024-03-02T09:26:36;9.00;7.00;5.00
78512;PMS5003;67809;55.034;73.462;2024-03-02T09:29:02;7.00;6.67;4.00
78512;PMS5003;67809;55.034;73.462;2024-03-02T09:31:28;12.00;11.00;7.00
78512;PMS5003;67809;55.034;73.462;2024-03-02T09:33:54;10.25;9.00;5.00
78512;PMS5003;67809;55.034;73.462;2024-03-02T09:36:21;7.75;7.00;4.00
78512;PMS5003;67809;55.034;73.462;2024-03-02T09:38:48;7.00;6.00;4.00
78512;PMS5003;67809;55.034;73.462;2024-03-02T09:41:15;7.00;7.00;4.00
78512;PMS5003;67809;55.034;73.462;2024-03-02T09:43:41;6.00;6.00;4.00
78512;PMS5003;67809;55.034;73.462;2024-03-02T09:46:10;5.00;5.00;3.00
78512;PMS5003;67809;55.034;73.462;2024-03-02T09:48:37;5.00;5.00;3.00
78512;PMS5003;67809;55.034;73.462;2024-03-02T09:51:04;6.00;6.00;3.00
78512;PMS5003;67809;55.034;73.462;2024-03-02T09:53:31;6.00;6.00;4.00
78512;PMS5003;67809;55.034;73.462;2024-03-02T09:55:58;9.00;8.00;4.50
78512;PMS5003;67809;55.034;73.462;2024-03-02T09:58:25;9.00;8.00;5.00
78512;PMS5003;67809;55.034;73.462;2024-03-02T10:00:51;7.00;6.25;5.00
78512;PMS5003;67809;55.034;73.462;2024-03-02T10:03:18;7.00;7.00;4.00
78512;PMS5003;67809;55.034;73.462;2024-03-02T10:05:44;6.00;6.00;4.00
78512;PMS5003;67809;55.034;73.462;2024-03-02T10:08:15;6.00;5.40;4.00
78512;PMS5003;67809;55.034;73.462;2024-03-02T10:10:42;7.00;6.25;4.00
78512;PMS5003;67809;55.034;73.462;2024-03-02T10:13:10;8.00;7.00;5.00
78512;PMS5003;67809;55.034;73.462;2024-03-02T10:15:37;7.00;6.00;5.00
78512;PMS5003;67809;55.034;73.462;2024-03-02T10:18:04;8.25;7.50;5.00
78512;PMS5003;67809;55.034;73.462;2024-03-02T10:20:30;13.50;12.50;8.00
78512;PMS5003;67809;55.034;73.462;2024-03-02T10:23:20;35.00;28.00;17.00
78512;PMS5003;67809;55.034;73.462;2024-03-02T10:25:46;21.00;18.00;12.00
78512;PMS5003;67809;55.034;73.462;2024-03-02T10:28:12;17.00;15.00;10.00
78512;PMS5003;67809;55.034;73.462;2024-03-02T10:30:39;12.33;11.00;8.00
78512;PMS5003;67809;55.034;73.462;2024-03-02T10:33:05;12.25;10.00;7.00
78512;PMS5003;67809;55.034;73.462;2024-03-02T10:35:32;7.00;7.00;5.00
78512;PMS5003;67809;55.034;73.462;2024-03-02T10:38:03;7.00;7.00;5.00
78512;PMS5003;67809;55.034;73.462;2024-03-02T10:40:29;8.00;7.00;5.00
78512;PMS5003;67809;55.034;73.462;2024-03-02T10:42:56;4.00;4.00;3.00
78512;PMS5003;67809;55.034;73.462;2024-03-02T10:45:22;6.75;6.00;4.00
78512;PMS5003;67809;55.034;73.462;2024-03-02T10:47:49;10.00;9.00;6.00
78512;PMS5003;67809;55.034;73.462;2024-03-02T10:50:15;14.00;12.00;8.00
78512;PMS5003;67809;55.034;73.462;2024-03-02T10:52:42;16.75;15.00;10.00
78512;PMS5003;67809;55.034;73.462;2024-03-02T10:55:09;21.50;18.00;11.00
78512;PMS5003;67809;55.034;73.462;2024-03-02T10:57:43;20.00;17.00;11.00
78512;PMS5003;67809;55.034;73.462;2024-03-02T11:00:12;26.33;22.00;14.00
78512;PMS5003;67809;55.034;73.462;2024-03-02T11:02:42;28.50;23.50;14.00
78512;PMS5003;67809;55.034;73.462;2024-03-02T11:05:12;36.00;29.50;19.00
78512;PMS5003;67809;55.034;73.462;2024-03-02T11:07:39;36.00;29.00;19.75
78512;PMS5003;67809;55.034;73.462;2024-03-02T11:10:06;28.00;24.00;15.00
78512;PMS5003;67809;55.034;73.462;2024-03-02T11:12:46;13.00;12.00;8.00
78512;PMS5003;67809;55.034;73.462;2024-03-02T11:15:16;11.50;9.75;6.75
78512;PMS5003;67809;55.034;73.462;2024-03-02T11:17:43;8.50;8.00;5.50
78512;PMS5003;67809;55.034;73.462;2024-03-02T11:20:09;11.00;9.00;6.00
78512;PMS5003;67809;55.034;73.462;2024-03-02T11:22:36;15.00;13.00;9.00
78512;PMS5003;67809;55.034;73.462;2024-03-02T11:25:02;9.00;8.00;5.00
78512;PMS5003;67809;55.034;73.462;2024-03-02T11:32:59;10.00;9.00;5.00
78512;PMS5003;67809;55.034;73.462;2024-03-02T11:35:25;22.25;19.25;13.00
78512;PMS5003;67809;55.034;73.462;2024-03-02T11:37:52;13.50;11.25;8.00
78512;PMS5003;67809;55.034;73.462;2024-03-02T11:40:27;19.00;16.00;11.00
78512;PMS5003;67809;55.034;73.462;2024-03-02T11:42:53;12.00;10.00;6.00
78512;PMS5003;67809;55.034;73.462;2024-03-02T11:45:23;15.00;13.00;9.00
78512;PMS5003;67809;55.034;73.462;2024-03-02T11:47:50;11.00;9.00;5.75
78512;PMS5003;67809;55.034;73.462;2024-03-02T11:53:08;11.00;9.25;6.25
78512;PMS5003;67809;55.034;73.462;2024-03-02T11:55:35;53.75;33.50;18.25
78512;PMS5003;67809;55.034;73.462;2024-03-02T11:58:07;21.25;16.50;10.25
78512;PMS5003;67809;55.034;73.462;2024-03-02T12:00:33;18.00;15.00;10.00
78512;PMS5003;67809;55.034;73.462;2024-03-02T12:03:00;15.00;12.00;8.00
78512;PMS5003;67809;55.034;73.462;2024-03-02T12:05:27;13.00;10.50;6.50
78512;PMS5003;67809;55.034;73.462;2024-03-02T12:08:03;12.25;10.00;7.00
78512;PMS5003;67809;55.034;73.462;2024-03-02T12:10:31;16.67;12.00;8.00
78512;PMS5003;67809;55.034;73.462;2024-03-02T12:13:01;11.50;10.50;7.50
78512;PMS5003;67809;55.034;73.462;2024-03-02T12:15:29;16.00;13.50;8.75
78512;PMS5003;67809;55.034;73.462;2024-03-02T12:17:56;14.75;12.25;8.00
78512;PMS5003;67809;55.034;73.462;2024-03-02T12:20:42;12.00;10.00;7.00
78512;PMS5003;67809;55.034;73.462;2024-03-02T12:23:08;9.00;7.25;5.00
78512;PMS5003;67809;55.034;73.462;2024-03-02T12:25:45;8.00;7.00;5.00
78512;PMS5003;67809;55.034;73.462;2024-03-02T12:28:11;7.00;7.00;5.00
78512;PMS5003;67809;55.034;73.462;2024-03-02T12:30:45;8.00;7.00;5.00
78512;PMS5003;67809;55.034;73.462;2024-03-02T12:33:13;9.00;7.75;6.00
78512;PMS5003;67809;55.034;73.462;2024-03-02T12:35:40;8.25;8.00;5.00
78512;PMS5003;67809;55.034;73.462;2024-03-02T12:38:07;7.00;6.00;4.00
78512;PMS5003;67809;55.034;73.462;2024-03-02T12:40:33;7.00;6.00;4.00
78512;PMS5003;67809;55.034;73.462;2024-03-02T12:42:59;9.00;8.00;5.00
78512;PMS5003;67809;55.034;73.462;2024-03-02T12:45:26;10.00;9.00;6.00
78512;PMS5003;67809;55.034;73.462;2024-03-02T12:47:53;17.50;14.50;9.00
78512;PMS5003;67809;55.034;73.462;2024-03-02T12:50:19;18.00;14.00;9.00
78512;PMS5003;67809;55.034;73.462;2024-03-02T12:52:52;15.25;13.00;8.00
78512;PMS5003;67809;55.034;73.462;2024-03-02T12:55:19;16.00;13.00;9.00
78512;PMS5003;67809;55.034;73.462;2024-03-02T12:57:46;33.00;26.00;17.00
78512;PMS5003;67809;55.034;73.462;2024-03-02T13:00:13;26.67;22.00;15.00
78512;PMS5003;67809;55.034;73.462;2024-03-02T13:02:39;22.25;18.25;10.50
78512;PMS5003;67809;55.034;73.462;2024-03-02T13:05:06;31.75;26.50;17.75
78512;PMS5003;67809;55.034;73.462;2024-03-02T13:07:53;26.50;22.25;15.00
78512;PMS5003;67809;55.034;73.462;2024-03-02T13:10:20;50.75;40.00;26.25
78512;PMS5003;67809;55.034;73.462;2024-03-02T13:12:46;41.50;33.00;21.50
78512;PMS5003;67809;55.034;73.462;2024-03-02T13:15:12;27.75;24.00;16.00
78512;PMS5003;67809;55.034;73.462;2024-03-02T13:17:38;13.00;11.00;8.00
78512;PMS5003;67809;55.034;73.462;2024-03-02T13:20:05;12.00;10.00;7.00
78512;PMS5003;67809;55.034;73.462;2024-03-02T13:22:50;16.00;12.75;8.00
78512;PMS5003;67809;55.034;73.462;2024-03-02T13:25:17;11.00;9.00;6.50
78512;PMS5003;67809;55.034;73.462;2024-03-02T13:27:44;19.75;15.75;10.00
78512;PMS5003;67809;55.034;73.462;2024-03-02T13:30:10;45.25;31.75;19.00
78512;PMS5003;67809;55.034;73.462;2024-03-02T13:32:56;28.25;21.50;12.75
78512;PMS5003;67809;55.034;73.462;2024-03-02T13:35:22;36.25;29.00;19.00
78512;PMS5003;67809;55.034;73.462;2024-03-02T13:37:48;15.00;13.00;8.50
78512;PMS5003;67809;55.034;73.462;2024-03-02T13:40:16;13.00;10.25;5.75
78512;PMS5003;67809;55.034;73.462;2024-03-02T13:42:46;11.25;10.00;7.00
78512;PMS5003;67809;55.034;73.462;2024-03-02T13:45:13;22.75;17.75;11.75
78512;PMS5003;67809;55.034;73.462;2024-03-02T13:47:39;25.00;19.25;12.50
78512;PMS5003;67809;55.034;73.462;2024-03-02T13:50:09;9.00;8.00;6.00
78512;PMS5003;67809;55.034;73.462;2024-03-02T13:52:39;10.00;8.33;6.00
78512;PMS5003;67809;55.034;73.462;2024-03-02T13:55:10;18.00;15.50;9.75
78512;PMS5003;67809;55.034;73.462;2024-03-02T13:57:36;22.25;19.25;12.25
78512;PMS5003;67809;55.034;73.462;2024-03-02T14:00:02;68.50;56.25;41.00
78512;PMS5003;67809;55.034;73.462;2024-03-02T14:02:55;150.00;127.00;88.33
78512;PMS5003;67809;55.034;73.462;2024-03-02T14:05:22;27.25;23.75;18.00
78512;PMS5003;67809;55.034;73.462;2024-03-02T14:07:48;14.75;13.00;9.00
78512;PMS5003;67809;55.034;73.462;2024-03-02T14:10:14;57.75;45.00;31.75